This is the latest recevied weather packets stored in our database for station/object IW2OBX-10. If no packets are shown the sender has not sent any weather packets the latest 10 day(s).
| Time | Temp. | Humidity | Pressure | Rain* | Wind** | Luminosity | Snow |
|---|---|---|---|---|---|---|---|
| 1777588733 | 14.44° C | 52% | 1026.1 hPa | - | - | - | - |
| 1777586931 | 15° C | 45% | 1025.8 hPa | - | - | - | - |
| 1777586031 | 15.56° C | 49% | 1025.7 hPa | - | - | - | - |
| 1777585130 | 15° C | 62% | 1025.6 hPa | - | - | - | - |
| 1777584229 | 15° C | 62% | 1025.5 hPa | - | - | - | - |
| 1777583328 | 15° C | 62% | 1025.6 hPa | - | - | - | - |
| 1777582427 | 14.44° C | 64% | 1025.4 hPa | - | - | - | - |
| 1777581527 | 14.44° C | 63% | 1025.3 hPa | - | - | - | - |
| 1777580626 | 13.33° C | 66% | 1025.2 hPa | - | - | - | - |
| 1777579725 | 13.33° C | 66% | 1025 hPa | - | - | - | - |
| 1777578820 | 13.89° C | 65% | 1025 hPa | - | - | - | - |
| 1777577919 | 13.89° C | 64% | 1024.7 hPa | - | - | - | - |
| 1777577018 | 14.44° C | 63% | 1024.5 hPa | - | - | - | - |
| 1777576117 | 15° C | 61% | 1024.3 hPa | - | - | - | - |
| 1777575217 | 15.56° C | 60% | 1024 hPa | - | - | - | - |
| 1777574316 | 16.11° C | 59% | 1023.7 hPa | - | - | - | - |
| 1777573415 | 16.67° C | 59% | 1023.5 hPa | - | - | - | - |
| 1777572514 | 17.22° C | 57% | 1023.2 hPa | - | - | - | - |
| 1777571613 | 17.22° C | 56% | 1022.9 hPa | - | - | - | - |
| 1777570712 | 17.22° C | 54% | 1022.8 hPa | - | - | - | - |
| 1777569811 | 17.78° C | 52% | 1022.7 hPa | - | - | - | - |
| 1777568911 | 17.78° C | 53% | 1022.7 hPa | - | - | - | - |
| 1777568010 | 18.33° C | 52% | 1022.6 hPa | - | - | - | - |
| 1777567109 | 18.89° C | 50% | 1022.6 hPa | - | - | - | - |
| 1777566208 | 20° C | 46% | 1022.6 hPa | - | - | - | - |
* Rain since midnight (hover to see other rain measurements)
** Current wind speed in m/s (hover to see current wind gust speed)